Time;durP1;ratioP1;P1;durP2;ratioP2;P2;SDS_P1;SDS_P2;PMS_P1;PMS_P2;Temp;Humidity;BMP_temperature;BMP_pressure;BME280_temperature;BME280_humidity;BME280_pressure;Samples;Min_cycle;Max_cycle;Signal;HPM_P1;HPM_P2
2022/12/19 00:01:41;;;;;;;10.37;5.87;;;;;;;0.44;66.26;101546.47;5051751;28;20221;-81
2022/12/19 00:04:11;;;;;;;9.30;5.03;;;;;;;0.47;66.04;101551.69;5042551;28;20740;-81
2022/12/19 00:06:39;;;;;;;8.10;5.43;;;;;;;0.51;66.10;101544.69;5048461;28;20202;-81
2022/12/19 00:09:05;;;;;;;13.23;7.37;;;;;;;0.57;66.64;101550.72;5048290;28;20221;-81
2022/12/19 00:11:33;;;;;;;10.47;5.77;;;;;;;0.59;66.21;101546.34;5045871;28;20226;-79
2022/12/19 00:14:00;;;;;;;12.17;6.90;;;;;;;0.64;66.33;101541.06;5049502;28;20292;-81
2022/12/19 00:16:29;;;;;;;10.23;6.53;;;;;;;0.65;65.93;101527.94;5052116;28;20682;-79
2022/12/19 00:18:58;;;;;;;11.27;7.20;;;;;;;0.65;66.16;101529.69;5047818;28;20213;-78
2022/12/19 00:21:26;;;;;;;8.77;6.37;;;;;;;0.67;65.98;101525.31;5050794;28;20229;-80
2022/12/19 00:23:53;;;;;;;10.77;6.63;;;;;;;0.64;66.00;101530.56;5049262;28;20194;-81
2022/12/19 00:26:22;;;;;;;11.10;6.73;;;;;;;0.64;66.27;101526.19;5048757;28;20202;-80
2022/12/19 00:28:50;;;;;;;10.17;6.63;;;;;;;0.62;66.67;101527.09;5055185;28;20637;-81
2022/12/19 00:31:19;;;;;;;9.37;6.20;;;;;;;0.68;65.97;101524.44;5053106;28;20270;-78
2022/12/19 00:33:46;;;;;;;12.43;7.30;;;;;;;0.72;66.54;101522.66;5055104;28;20228;-81
2022/12/19 00:36:16;;;;;;;10.20;5.90;;;;;;;0.70;65.97;101520.03;5051504;28;20202;-81
2022/12/19 00:38:42;;;;;;;8.90;4.83;;;;;;;0.75;66.77;101517.34;5053349;28;20198;-79
2022/12/19 00:41:10;;;;;;;10.13;6.70;;;;;;;0.75;66.91;101510.38;5054244;28;20218;-79
2022/12/19 00:43:37;;;;;;;13.43;6.83;;;;;;;0.76;66.91;101512.09;5051730;28;20209;-79
2022/12/19 00:46:03;;;;;;;11.07;5.70;;;;;;;0.76;66.82;101506.00;5052979;28;20210;-79
2022/12/19 00:48:31;;;;;;;10.77;6.37;;;;;;;0.77;66.78;101500.72;5054871;28;20225;-78
2022/12/19 00:51:01;;;;;;;11.10;6.83;;;;;;;0.76;67.35;101492.88;5055570;28;20250;-80
2022/12/19 00:53:29;;;;;;;11.33;7.30;;;;;;;0.75;67.44;101504.25;5049210;28;20267;-81
2022/12/19 00:55:55;;;;;;;10.17;5.80;;;;;;;0.74;67.97;101502.50;5049495;28;20572;-80
2022/12/19 00:58:22;;;;;;;13.53;7.97;;;;;;;0.70;68.29;101506.94;5051859;28;20201;-81
2022/12/19 01:00:49;;;;;;;10.13;6.07;;;;;;;0.73;68.88;101501.63;5043685;28;20225;-79
2022/12/19 01:03:15;;;;;;;12.80;7.77;;;;;;;0.75;69.04;101499.88;5051929;28;20622;-79
2022/12/19 01:05:42;;;;;;;11.57;6.77;;;;;;;0.77;69.68;101507.72;5049046;28;20209;-79
2022/12/19 01:08:08;;;;;;;10.57;6.53;;;;;;;0.77;69.90;101502.47;5052118;28;20225;-80
2022/12/19 01:10:37;;;;;;;13.03;7.77;;;;;;;0.75;70.27;101514.75;5042772;28;20711;-79
2022/12/19 01:13:02;;;;;;;14.93;8.40;;;;;;;0.71;71.00;101518.28;5044231;28;20206;-83
2022/12/19 01:15:29;;;;;;;14.57;8.07;;;;;;;0.67;71.34;101512.19;5053543;28;20204;-81
2022/12/19 01:17:55;;;;;;;14.77;8.43;;;;;;;0.62;72.04;101508.75;5049251;28;20593;-81
2022/12/19 01:20:22;;;;;;;13.23;7.73;;;;;;;0.60;72.18;101511.38;5049754;28;20851;-81
2022/12/19 01:22:48;;;;;;;10.60;7.23;;;;;;;0.62;72.67;101512.25;5051441;28;20213;-80
2022/12/19 01:25:15;;;;;;;12.50;7.50;;;;;;;0.59;72.94;101514.00;5044195;28;20202;-80
2022/12/19 01:27:43;;;;;;;11.33;7.00;;;;;;;0.57;73.00;101513.16;5045779;28;20613;-79
2022/12/19 01:30:11;;;;;;;13.20;7.30;;;;;;;0.56;73.40;101512.28;5046007;28;20217;-81
2022/12/19 01:32:37;;;;;;;11.17;6.03;;;;;;;0.61;74.36;101513.13;5051413;28;20221;-80
2022/12/19 01:35:04;;;;;;;16.83;8.97;;;;;;;0.60;74.23;101516.63;5039729;28;20203;-83
2022/12/19 01:37:31;;;;;;;12.50;5.97;;;;;;;0.61;74.82;101509.63;5054716;28;20198;-82
2022/12/19 01:39:57;;;;;;;16.73;9.13;;;;;;;0.58;74.92;101502.66;5053183;28;20213;-80
2022/12/19 01:42:24;;;;;;;13.50;6.97;;;;;;;0.58;75.19;101497.41;5056832;28;20225;-81
2022/12/19 01:45:25;;;;;;;13.23;6.13;;;;;;;0.61;75.38;101496.53;5055478;28;20590;-81
2022/12/19 01:47:56;;;;;;;12.17;7.30;;;;;;;0.62;75.79;101483.41;5053342;28;20228;-80
2022/12/19 01:50:26;;;;;;;13.93;8.13;;;;;;;0.69;75.84;101477.22;5053580;28;20235;-80
2022/12/19 01:52:54;;;;;;;8.33;3.90;;;;;;;0.71;75.68;101465.84;5045540;28;20596;-79
2022/12/19 01:55:21;;;;;;;12.60;8.23;;;;;;;0.71;75.87;101478.97;5049642;28;20217;-80
2022/12/19 01:57:47;;;;;;;7.57;4.53;;;;;;;0.70;75.91;101483.34;5055926;28;20198;-82
2022/12/19 02:00:14;;;;;;;14.50;8.93;;;;;;;0.70;76.34;101480.72;5047249;28;20546;-80
2022/12/19 02:02:48;;;;;;;14.63;8.73;;;;;;;0.69;76.37;101478.97;5050232;28;20205;-80
2022/12/19 02:05:15;;;;;;;16.40;9.17;;;;;;;0.71;76.83;101476.34;5047787;28;20205;-81
2022/12/19 02:07:43;;;;;;;17.50;9.10;;;;;;;0.67;77.01;101478.13;5051160;28;20206;-79
2022/12/19 02:10:09;;;;;;;13.27;8.70;;;;;;;0.64;77.75;101473.78;5056403;28;20824;-79
2022/12/19 02:12:38;;;;;;;13.70;7.83;;;;;;;0.69;77.96;101474.59;5051236;28;20222;-79
2022/12/19 02:15:06;;;;;;;16.00;8.63;;;;;;;0.68;78.08;101467.63;5050135;28;20210;-79
2022/12/19 02:17:42;;;;;;;12.30;8.33;;;;;;;0.69;78.06;101458.88;5055893;28;20680;-79
2022/12/19 02:20:43;;;;;;;8.53;5.93;;;;;;;0.76;78.74;101461.41;5055043;28;20232;-79
2022/12/19 02:23:33;;;;;;;13.33;8.13;;;;;;;0.79;78.48;101445.66;5045794;28;20217;-80
2022/12/19 02:26:13;;;;;;;13.10;7.87;;;;;;;0.79;78.82;101454.41;5051255;28;20202;-79
2022/12/19 02:29:17;;;;;;;16.00;8.50;;;;;;;0.77;78.72;101436.94;5052682;28;20221;-80
2022/12/19 02:31:51;;;;;;;11.97;7.30;;;;;;;0.77;79.13;101437.81;5032802;28;20239;-78
2022/12/19 02:34:25;;;;;;;12.87;6.70;;;;;;;0.74;79.46;101434.34;5047440;28;20203;-79
2022/12/19 02:36:55;;;;;;;13.20;7.57;;;;;;;0.80;79.50;101429.91;5044313;28;20689;-79
2022/12/19 02:39:26;;;;;;;14.07;7.57;;;;;;;0.81;79.39;101415.06;5051817;28;20202;-80
2022/12/19 02:41:56;;;;;;;10.20;6.43;;;;;;;0.87;79.56;101409.75;5054085;28;20237;-79
2022/12/19 02:44:26;;;;;;;15.17;8.67;;;;;;;0.91;79.82;101401.81;5056129;28;20198;-81
2022/12/19 02:46:55;;;;;;;9.33;5.70;;;;;;;0.95;79.27;101403.50;5047473;28;20207;-80
2022/12/19 02:49:22;;;;;;;13.53;8.30;;;;;;;0.99;79.17;101405.22;5046591;28;20206;-81
2022/12/19 02:51:48;;;;;;;15.77;8.90;;;;;;;0.98;78.64;101415.72;5052601;28;20511;-81
2022/12/19 02:54:16;;;;;;;9.00;5.50;;;;;;;0.99;78.69;101409.59;5049210;28;20202;-79
2022/12/19 02:56:51;;;;;;;12.43;8.20;;;;;;;1.01;78.87;101421.81;5052712;28;20217;-80
2022/12/19 02:59:34;;;;;;;16.27;8.73;;;;;;;1.04;78.65;101432.28;5056215;28;20208;-80
2022/12/19 03:02:08;;;;;;;13.57;7.43;;;;;;;1.05;78.46;101417.41;5046493;28;20221;-79
2022/12/19 03:04:44;;;;;;;11.77;8.47;;;;;;;1.07;78.10;101418.25;5045378;28;20200;-79
2022/12/19 03:07:15;;;;;;;16.43;9.27;;;;;;;1.00;78.28;101420.06;5051338;28;20194;-80
2022/12/19 03:09:50;;;;;;;13.00;8.80;;;;;;;1.02;78.31;101401.69;5045859;28;20752;-79
2022/12/19 03:12:23;;;;;;;14.83;8.40;;;;;;;1.05;78.64;101404.28;5050775;28;20231;-79
2022/12/19 03:14:52;;;;;;;14.87;9.27;;;;;;;1.07;78.45;101394.66;5043592;28;20193;-80
2022/12/19 03:17:20;;;;;;;11.30;7.60;;;;;;;1.04;78.63;101377.19;5047948;28;20201;-80
2022/12/19 03:19:46;;;;;;;12.23;5.40;;;;;;;1.05;78.76;101396.41;5055366;28;20204;-78
2022/12/19 03:22:13;;;;;;;15.27;8.57;;;;;;;1.12;78.89;101398.06;5049286;28;20241;-80
2022/12/19 03:24:40;;;;;;;12.20;7.10;;;;;;;1.13;78.85;101407.66;5046632;28;20212;-81
2022/12/19 03:27:11;;;;;;;14.37;8.57;;;;;;;1.12;78.94;101405.91;5050168;28;20212;-80
2022/12/19 03:29:42;;;;;;;12.57;8.50;;;;;;;1.08;78.80;101412.09;5046417;28;20318;-82
2022/12/19 03:32:15;;;;;;;16.10;9.10;;;;;;;1.14;78.72;101425.13;5040347;28;20221;-79
2022/12/19 03:34:49;;;;;;;13.20;8.37;;;;;;;1.19;78.40;101427.72;5052677;28;20204;-81
2022/12/19 03:37:18;;;;;;;17.47;8.57;;;;;;;1.20;78.29;101414.56;5051879;28;20212;-79
2022/12/19 03:39:48;;;;;;;15.17;9.03;;;;;;;1.20;78.42;101404.09;5056599;28;20687;-79
2022/12/19 03:45:03;;;;;;;15.20;8.07;;;;;;;1.21;78.42;101397.94;5048822;28;20255;-80
2022/12/19 03:47:35;;;;;;;16.40;9.40;;;;;;;1.17;78.49;101392.75;5054503;28;20205;-78
2022/12/19 03:50:04;;;;;;;15.03;9.33;;;;;;;1.17;78.21;101388.38;5054690;28;20680;-79
2022/12/19 03:52:39;;;;;;;13.97;8.40;;;;;;;1.17;78.27;101388.38;5051604;28;20229;-78
2022/12/19 03:55:12;;;;;;;15.23;7.63;;;;;;;1.17;78.43;101396.25;5046980;28;20197;-80
2022/12/19 03:57:42;;;;;;;17.50;8.67;;;;;;;1.17;78.80;101392.75;5059162;28;20207;-79
2022/12/19 04:00:13;;;;;;;14.57;8.80;;;;;;;1.19;78.57;101397.09;5043463;28;20199;-79
2022/12/19 04:02:43;;;;;;;15.03;8.67;;;;;;;1.17;78.72;101385.75;5052633;28;20233;-79
2022/12/19 04:05:14;;;;;;;20.20;11.40;;;;;;;1.20;78.46;101390.97;5050121;28;20672;-79
2022/12/19 04:07:42;;;;;;;15.37;9.13;;;;;;;1.23;78.48;101392.69;5045430;28;20204;-78
2022/12/19 04:10:12;;;;;;;15.90;8.87;;;;;;;1.23;78.65;101390.06;5045485;28;20230;-80
2022/12/19 04:12:42;;;;;;;17.57;9.83;;;;;;;1.27;78.46;101379.47;5045809;28;20229;-80
2022/12/19 04:15:09;;;;;;;15.23;9.07;;;;;;;1.25;78.25;101365.53;5045580;28;20213;-80
2022/12/19 04:17:40;;;;;;;17.13;9.65;;;;;;;1.25;78.21;101364.66;5007800;28;1071252;-78
2022/12/19 04:20:10;;;;;;;15.83;9.07;;;;;;;1.22;78.50;101375.22;5045846;28;20194;-80
2022/12/19 04:22:41;;;;;;;16.83;9.90;;;;;;;1.21;78.47;101383.97;5047908;28;20268;-79
2022/12/19 04:25:12;;;;;;;16.20;9.57;;;;;;;1.25;78.69;101385.66;5045683;28;20203;-80
2022/12/19 04:27:43;;;;;;;16.57;10.03;;;;;;;1.23;78.01;101372.56;5049747;28;20206;-80
2022/12/19 04:30:14;;;;;;;15.93;9.73;;;;;;;1.21;78.49;101347.22;5055322;28;20233;-80
2022/12/19 04:32:42;;;;;;;17.30;10.30;;;;;;;1.18;78.30;101363.00;5054554;28;20225;-78
2022/12/19 04:35:09;;;;;;;16.30;9.80;;;;;;;1.17;78.10;101367.38;5050323;28;20217;-80
2022/12/19 04:37:35;;;;;;;15.67;10.00;;;;;;;1.15;78.14;101366.53;5053530;28;20594;-79
2022/12/19 04:40:04;;;;;;;15.77;10.10;;;;;;;1.12;78.59;101356.06;5048624;28;20202;-81
2022/12/19 04:42:30;;;;;;;16.17;9.27;;;;;;;1.11;78.42;101354.34;5055612;28;20225;-80
2022/12/19 04:44:57;;;;;;;16.73;9.80;;;;;;;1.11;78.14;101338.59;5049536;28;20270;-79
2022/12/19 04:47:24;;;;;;;16.10;9.63;;;;;;;1.11;78.13;101340.34;5047490;28;20919;-81
2022/12/19 04:49:50;;;;;;;14.07;9.27;;;;;;;1.09;78.22;101344.75;5055377;28;20232;-81
2022/12/19 04:52:17;;;;;;;15.33;9.27;;;;;;;1.08;78.98;101343.88;5056781;28;20232;-79
2022/12/19 04:54:43;;;;;;;19.63;11.13;;;;;;;1.08;78.79;101336.00;5052657;28;20572;-80
2022/12/19 04:57:11;;;;;;;14.60;8.93;;;;;;;1.12;79.21;101316.72;5050479;28;20209;-80
2022/12/19 04:59:37;;;;;;;17.67;9.70;;;;;;;1.14;79.29;101298.34;5052059;28;20201;-80
2022/12/19 05:02:04;;;;;;;15.43;9.33;;;;;;;1.16;79.04;101294.81;5050237;28;20230;-81
2022/12/19 05:04:30;;;;;;;15.57;9.67;;;;;;;1.16;78.79;101305.31;5049804;28;20209;-80
2022/12/19 05:06:57;;;;;;;16.87;9.03;;;;;;;1.16;78.89;101301.81;5046294;28;20202;-78
2022/12/19 05:09:23;;;;;;;18.23;10.57;;;;;;;1.16;78.94;101297.44;5053061;28;20288;-79
2022/12/19 05:11:50;;;;;;;17.63;9.57;;;;;;;1.17;78.90;101296.56;5054378;28;20226;-79
2022/12/19 05:14:18;;;;;;;14.93;9.27;;;;;;;1.17;78.93;101293.94;5055727;28;20198;-81
2022/12/19 05:16:44;;;;;;;17.40;9.83;;;;;;;1.17;79.14;101288.69;5061163;28;20236;-80
2022/12/19 05:19:11;;;;;;;17.73;10.27;;;;;;;1.14;78.87;101278.22;5058773;28;20679;-81
2022/12/19 05:21:37;;;;;;;16.03;8.37;;;;;;;1.19;78.86;101270.28;5055236;28;20227;-81
2022/12/19 05:24:04;;;;;;;15.10;10.07;;;;;;;1.19;78.59;101259.81;5051985;28;20238;-80
2022/12/19 05:26:31;;;;;;;13.20;8.23;;;;;;;1.20;78.46;101262.41;5057247;28;20206;-80
2022/12/19 05:28:57;;;;;;;15.47;10.17;;;;;;;1.17;79.14;101262.44;5046660;28;20234;-79
2022/12/19 05:31:25;;;;;;;15.83;8.77;;;;;;;1.16;78.79;101263.34;5053477;28;20230;-78
2022/12/19 05:33:51;;;;;;;15.03;8.93;;;;;;;1.19;78.93;101265.06;5050389;28;20209;-81
2022/12/19 05:36:18;;;;;;;15.60;9.70;;;;;;;1.16;78.91;101260.72;5047194;28;20201;-81
2022/12/19 05:38:45;;;;;;;15.07;8.70;;;;;;;1.16;78.88;101263.34;5056681;28;20217;-79
2022/12/19 05:41:15;;;;;;;15.80;10.67;;;;;;;1.16;79.52;101275.59;5049451;28;20222;-80
2022/12/19 05:43:42;;;;;;;16.53;10.37;;;;;;;1.16;79.88;101272.97;5044859;28;20691;-80
2022/12/19 05:46:08;;;;;;;17.03;9.77;;;;;;;1.17;79.52;101272.94;5038076;28;20551;-80
2022/12/19 05:48:37;;;;;;;16.60;11.00;;;;;;;1.16;80.05;101276.44;5055555;28;20208;-80
2022/12/19 05:51:04;;;;;;;21.30;10.93;;;;;;;1.17;79.90;101266.81;5054906;28;20262;-78
2022/12/19 05:53:31;;;;;;;18.53;10.83;;;;;;;1.19;79.97;101273.78;5044026;28;20206;-79
2022/12/19 05:56:09;;;;;;;19.67;9.70;;;;;;;1.18;80.38;101263.31;5051365;28;20221;-82
2022/12/19 05:58:35;;;;;;;18.67;10.67;;;;;;;1.21;80.92;101258.03;5053387;28;20197;-79
2022/12/19 06:01:03;;;;;;;16.93;9.70;;;;;;;1.24;80.87;101256.22;5054962;28;20222;-81
2022/12/19 06:03:29;;;;;;;17.07;10.63;;;;;;;1.27;81.70;101253.53;5049589;28;20232;-80
2022/12/19 06:05:57;;;;;;;18.33;10.63;;;;;;;1.29;81.21;101251.75;5049317;28;20202;-81
2022/12/19 06:08:24;;;;;;;17.60;10.73;;;;;;;1.30;81.41;101245.63;5048897;28;20232;-80
2022/12/19 06:10:50;;;;;;;16.30;9.43;;;;;;;1.34;82.21;101244.69;5049184;28;20233;-80
2022/12/19 06:13:17;;;;;;;18.67;10.77;;;;;;;1.38;81.68;101246.38;5058892;28;20194;-79
2022/12/19 06:15:43;;;;;;;14.97;9.67;;;;;;;1.43;81.88;101232.31;5055410;28;20587;-79
2022/12/19 06:18:10;;;;;;;18.33;11.63;;;;;;;1.46;82.71;101219.97;5051942;28;20221;-79
2022/12/19 06:20:37;;;;;;;17.13;10.40;;;;;;;1.49;82.81;101224.31;5060009;28;20193;-79
2022/12/19 06:23:04;;;;;;;16.87;9.87;;;;;;;1.50;82.68;101229.53;5058629;28;20209;-79
2022/12/19 06:25:31;;;;;;;16.57;10.50;;;;;;;1.55;82.91;101211.97;5059709;28;20201;-79
2022/12/19 06:27:57;;;;;;;18.50;10.87;;;;;;;1.57;83.16;101198.81;5046217;28;20214;-80
2022/12/19 06:30:24;;;;;;;17.10;10.10;;;;;;;1.58;83.51;101204.03;5054105;28;20601;-80
2022/12/19 06:32:50;;;;;;;16.93;10.10;;;;;;;1.59;83.52;101207.53;5049216;28;20478;-82
2022/12/19 06:35:17;;;;;;;17.63;10.20;;;;;;;1.59;83.67;101189.16;5054611;28;20214;-80
2022/12/19 06:37:44;;;;;;;18.93;10.83;;;;;;;1.60;83.45;101191.75;5054994;28;20247;-79
2022/12/19 06:42:21;;;;;;;15.70;9.73;;;;;;;1.61;83.40;101190.84;5062085;28;20198;-82
2022/12/19 06:42:58;;;;;;;17.87;10.17;;;;;;;1.61;84.11;101195.25;5051631;28;20237;-82
2022/12/19 06:45:24;;;;;;;18.17;10.30;;;;;;;1.59;83.92;101186.53;5053073;28;20237;-82
2022/12/19 06:47:51;;;;;;;16.47;9.87;;;;;;;1.59;84.29;101197.03;5054945;28;20201;-81
2022/12/19 06:50:17;;;;;;;16.07;10.00;;;;;;;1.59;83.89;101211.03;5045948;28;20226;-81
2022/12/19 06:52:44;;;;;;;17.53;10.70;;;;;;;1.59;84.46;101218.03;5048354;28;20222;-81
2022/12/19 06:55:11;;;;;;;16.83;9.73;;;;;;;1.61;84.22;101211.00;5053660;28;20279;-80
2022/12/19 06:57:44;;;;;;;20.27;11.27;;;;;;;1.61;84.67;101208.38;5049714;28;20218;-82
2022/12/19 07:00:12;;;;;;;18.03;10.10;;;;;;;1.60;85.21;101210.13;5058242;28;20206;-81
2022/12/19 07:02:40;;;;;;;18.93;11.10;;;;;;;1.65;85.32;101210.03;5050260;28;20230;-80
2022/12/19 07:05:09;;;;;;;15.73;9.50;;;;;;;1.65;85.72;101202.16;5049705;28;20204;-80
2022/12/19 07:07:35;;;;;;;18.07;10.13;;;;;;;1.66;86.26;101188.13;5062913;28;20196;-83
2022/12/19 07:10:04;;;;;;;18.00;10.33;;;;;;;1.70;85.86;101190.69;5062001;28;20680;-81
2022/12/19 07:12:31;;;;;;;18.10;11.23;;;;;;;1.69;86.23;101196.81;5056712;28;20228;-80
2022/12/19 07:14:58;;;;;;;16.17;10.80;;;;;;;1.69;86.40;101198.59;5058083;28;20202;-82
2022/12/19 07:17:26;;;;;;;26.33;11.43;;;;;;;1.70;86.28;101197.69;5048758;28;20212;-80
2022/12/19 07:19:55;;;;;;;18.43;11.47;;;;;;;1.71;86.70;101200.28;5052809;28;20240;-79
2022/12/19 07:22:23;;;;;;;19.87;11.90;;;;;;;1.70;87.24;101202.94;5054489;28;20224;-79
2022/12/19 07:24:50;;;;;;;24.13;11.67;;;;;;;1.73;87.47;101198.50;5038430;28;20209;-80
2022/12/19 07:27:16;;;;;;;18.27;11.83;;;;;;;1.71;86.98;101196.81;5047523;28;20209;-81
2022/12/19 07:29:44;;;;;;;20.73;12.63;;;;;;;1.70;87.27;101203.81;5052679;28;20229;-80
2022/12/19 07:32:10;;;;;;;18.40;11.53;;;;;;;1.70;88.02;101210.81;5049677;28;20232;-81
2022/12/19 07:34:37;;;;;;;22.63;11.43;;;;;;;1.71;87.91;101202.06;5055373;28;20221;-79
2022/12/19 07:37:03;;;;;;;21.83;11.87;;;;;;;1.72;89.00;101203.78;5051646;28;20650;-82
2022/12/19 07:39:30;;;;;;;20.73;12.53;;;;;;;1.77;89.50;101203.72;5041253;28;20216;-81
2022/12/19 07:41:56;;;;;;;22.20;12.80;;;;;;;1.79;89.86;101200.16;5041803;28;20234;-81
2022/12/19 07:44:25;;;;;;;21.80;12.63;;;;;;;1.81;89.72;101210.63;5041280;28;20206;-83
2022/12/19 07:46:53;;;;;;;24.57;13.67;;;;;;;1.83;90.34;101207.06;5043647;28;20217;-83
2022/12/19 07:49:22;;;;;;;24.13;12.80;;;;;;;1.86;90.63;101201.75;5040100;28;20210;-82
2022/12/19 07:51:49;;;;;;;20.10;11.80;;;;;;;1.88;90.79;101209.63;5039780;28;20606;-81
2022/12/19 07:54:15;;;;;;;21.17;11.40;;;;;;;1.92;90.53;101198.16;5039380;28;20590;-79
2022/12/19 07:56:42;;;;;;;18.83;12.20;;;;;;;1.91;91.92;101202.56;5037339;28;20217;-79
2022/12/19 07:59:08;;;;;;;23.80;13.97;;;;;;;1.92;92.00;101209.53;5039966;28;20203;-79
2022/12/19 08:01:38;;;;;;;22.27;14.37;;;;;;;1.93;92.75;101215.66;5045034;28;20589;-79
2022/12/19 08:04:06;;;;;;;23.00;13.43;;;;;;;1.94;93.00;101227.91;5042190;28;21278;-81
2022/12/19 08:06:33;;;;;;;25.97;13.53;;;;;;;1.98;92.56;101222.53;5038509;28;20228;-80
2022/12/19 08:09:00;;;;;;;20.17;13.07;;;;;;;2.03;93.46;101217.19;5036749;28;20293;-80
2022/12/19 08:11:28;;;;;;;19.83;11.73;;;;;;;2.04;93.12;101217.16;5039804;28;20317;-82
2022/12/19 08:13:58;;;;;;;18.03;10.13;;;;;;;2.11;93.30;101212.69;5038613;28;20213;-80
2022/12/19 08:16:27;;;;;;;16.40;10.27;;;;;;;2.13;94.46;101210.03;5038988;28;20229;-81
2022/12/19 08:18:54;;;;;;;18.87;11.60;;;;;;;2.12;93.98;101209.16;5041245;28;20733;-81
2022/12/19 08:21:24;;;;;;;22.47;12.97;;;;;;;2.13;94.24;101215.28;5041025;28;20217;-81
2022/12/19 08:23:55;;;;;;;23.50;12.27;;;;;;;2.14;94.60;101206.50;5036889;28;20684;-80
2022/12/19 08:26:25;;;;;;;17.33;10.67;;;;;;;2.15;95.23;101218.75;5044809;28;20206;-80
2022/12/19 08:28:52;;;;;;;19.67;11.53;;;;;;;2.18;95.67;101209.00;5041869;28;20547;-79
2022/12/19 08:31:19;;;;;;;19.57;12.30;;;;;;;2.19;95.48;101215.13;5044374;28;20295;-80
2022/12/19 08:33:46;;;;;;;13.67;9.67;;;;;;;2.23;96.48;101211.56;5040526;28;20194;-81
2022/12/19 08:36:18;;;;;;;19.20;11.60;;;;;;;2.24;96.67;101219.41;5040460;28;20237;-81
2022/12/19 08:38:47;;;;;;;17.80;11.67;;;;;;;2.29;96.48;101221.97;5040048;28;20202;-79
2022/12/19 08:41:16;;;;;;;16.93;11.67;;;;;;;2.31;96.76;101207.88;5042648;28;20225;-81
2022/12/19 08:43:48;;;;;;;19.53;11.13;;;;;;;2.32;96.34;101221.91;5044126;28;20293;-79
2022/12/19 08:46:16;;;;;;;16.70;10.40;;;;;;;2.32;96.72;101219.28;5041669;28;20621;-81
2022/12/19 08:48:43;;;;;;;15.33;10.67;;;;;;;2.41;97.51;101203.28;5041488;28;20215;-80
2022/12/19 08:51:13;;;;;;;15.83;11.00;;;;;;;2.41;98.83;101200.66;5036598;28;20426;-81
2022/12/19 08:53:41;;;;;;;18.40;11.80;;;;;;;2.42;98.67;101200.63;5038667;28;20305;-80
2022/12/19 08:56:17;;;;;;;13.93;8.10;;;;;;;2.51;98.41;101199.56;5043447;28;20580;-81
2022/12/19 08:58:45;;;;;;;16.17;8.93;;;;;;;2.57;98.85;101190.69;5040245;28;20243;-81
2022/12/19 09:01:17;;;;;;;15.93;10.60;;;;;;;2.56;98.66;101188.94;5046164;28;20221;-81
2022/12/19 09:03:44;;;;;;;13.50;10.33;;;;;;;2.57;99.28;101194.19;5039943;28;20245;-81
2022/12/19 09:06:12;;;;;;;12.40;9.10;;;;;;;2.58;99.88;101201.16;5036160;28;20198;-81
2022/12/19 09:08:39;;;;;;;16.87;11.10;;;;;;;2.56;99.53;101188.94;5038042;28;20696;-81
2022/12/19 09:11:07;;;;;;;14.77;9.40;;;;;;;2.59;99.34;101175.75;5035688;28;20230;-81
2022/12/19 09:13:37;;;;;;;14.20;9.07;;;;;;;2.61;100.00;101166.06;5035517;28;20233;-81
2022/12/19 09:16:05;;;;;;;15.50;10.20;;;;;;;2.67;100.00;101168.56;5036430;28;20208;-80
2022/12/19 09:18:32;;;;;;;12.83;8.57;;;;;;;2.68;100.00;101158.00;5036637;28;20714;-81
2022/12/19 09:20:59;;;;;;;12.60;8.47;;;;;;;2.72;100.00;101154.38;5037018;28;20226;-81
2022/12/19 09:23:27;;;;;;;9.93;6.93;;;;;;;2.76;100.00;101131.50;5043216;28;20624;-80
2022/12/19 09:25:53;;;;;;;13.03;8.87;;;;;;;2.79;100.00;101142.84;5029684;28;20241;-80
2022/12/19 09:28:20;;;;;;;10.80;7.73;;;;;;;2.78;100.00;101138.47;5037741;28;20654;-81
2022/12/19 09:30:54;;;;;;;14.47;8.87;;;;;;;2.82;100.00;101139.25;5041358;28;20238;-80
2022/12/19 09:33:21;;;;;;;13.20;8.57;;;;;;;2.84;100.00;101136.59;5034066;28;20197;-80
2022/12/19 09:35:50;;;;;;;10.67;7.13;;;;;;;2.92;100.00;101142.53;5041925;28;20202;-80
2022/12/19 09:38:16;;;;;;;11.40;8.17;;;;;;;2.92;100.00;101139.91;5039604;28;20292;-81
2022/12/19 09:40:52;;;;;;;12.53;8.80;;;;;;;2.96;100.00;101125.78;5034294;28;20598;-81
2022/12/19 09:43:31;;;;;;;10.77;7.53;;;;;;;2.93;100.00;101129.34;5040766;28;20237;-80
2022/12/19 09:46:09;;;;;;;13.27;8.63;;;;;;;2.97;100.00;101122.25;5043841;28;20676;-80
2022/12/19 09:48:36;;;;;;;13.87;9.37;;;;;;;2.97;100.00;101122.25;5036387;28;20232;-80
2022/12/19 09:51:09;;;;;;;10.30;8.07;;;;;;;2.94;100.00;101132.84;5037386;28;20576;-81
2022/12/19 09:53:43;;;;;;;12.90;8.37;;;;;;;2.94;100.00;101132.84;5040522;28;20709;-80
2022/12/19 09:56:14;;;;;;;15.10;9.77;;;;;;;2.93;100.00;101142.50;5038800;28;20205;-80
2022/12/19 09:58:46;;;;;;;11.43;8.30;;;;;;;2.96;100.00;101146.81;5041252;28;20206;-81
2022/12/19 10:01:20;;;;;;;12.17;8.77;;;;;;;3.00;100.00;101141.47;5039534;28;20696;-81
2022/12/19 10:03:54;;;;;;;9.83;6.77;;;;;;;3.00;100.00;101148.47;5040878;28;20204;-81
2022/12/19 10:06:22;;;;;;;12.80;9.10;;;;;;;3.01;100.00;101144.94;5044407;28;20212;-80
2022/12/19 10:08:51;;;;;;;11.37;9.10;;;;;;;3.00;100.00;101145.84;5042625;28;20639;-80
2022/12/19 10:11:31;;;;;;;14.57;9.20;;;;;;;3.03;100.00;101137.88;5043207;28;20723;-82
2022/12/19 10:14:15;;;;;;;15.23;10.40;;;;;;;3.06;100.00;101137.78;5041538;28;20258;-82
2022/12/19 10:16:53;;;;;;;13.27;8.67;;;;;;;3.06;100.00;101129.91;5048787;28;20205;-82
2022/12/19 10:19:30;;;;;;;15.00;9.30;;;;;;;3.12;100.00;101129.75;5047166;28;20213;-82
2022/12/19 10:22:04;;;;;;;15.03;9.93;;;;;;;3.18;100.00;101126.09;5040885;28;20229;-82
2022/12/19 10:24:50;;;;;;;13.73;9.73;;;;;;;3.19;100.00;101118.19;5045161;28;20198;-82
2022/12/19 10:27:26;;;;;;;14.00;9.20;;;;;;;3.22;100.00;101110.22;5047808;28;20221;-81
2022/12/19 10:30:02;;;;;;;15.67;9.50;;;;;;;3.23;100.00;101116.31;5043279;28;20994;-81
2022/12/19 10:32:40;;;;;;;15.70;9.67;;;;;;;3.28;100.00;101103.91;5041294;28;20257;-81
2022/12/19 10:35:13;;;;;;;16.67;11.20;;;;;;;3.31;100.00;101109.09;5044573;28;20671;-81
2022/12/19 10:37:47;;;;;;;13.60;9.90;;;;;;;3.34;100.00;101103.75;5044829;28;20225;-81
2022/12/19 10:40:20;;;;;;;12.37;7.57;;;;;;;3.39;100.00;101104.50;5044158;28;20197;-81
2022/12/19 10:42:53;;;;;;;13.30;9.63;;;;;;;3.42;100.00;101099.13;5053726;28;20666;-81
2022/12/19 10:45:22;;;;;;;17.00;10.07;;;;;;;3.44;100.00;101100.81;5049089;28;20204;-81
2022/12/19 10:47:56;;;;;;;14.83;11.23;;;;;;;3.45;100.00;101094.66;5045364;28;20570;-82
2022/12/19 10:50:25;;;;;;;13.77;9.77;;;;;;;3.47;100.00;101084.94;5055809;28;20194;-82
2022/12/19 10:52:55;;;;;;;16.13;10.70;;;;;;;3.53;100.00;101077.78;5074652;28;20663;-82
2022/12/19 10:55:30;;;;;;;14.63;10.57;;;;;;;3.57;100.00;101075.03;5073860;28;20247;-82
2022/12/19 10:57:58;;;;;;;17.37;11.43;;;;;;;3.57;100.00;101075.03;5042540;28;20189;-80
2022/12/19 11:00:26;;;;;;;16.90;11.03;;;;;;;3.61;100.00;101079.28;5054478;28;20271;-80
2022/12/19 11:03:12;;;;;;;15.77;12.00;;;;;;;3.68;100.00;101069.44;5037175;28;20206;-82
2022/12/19 11:05:46;;;;;;;18.50;12.77;;;;;;;3.69;100.00;101069.41;5047537;28;20209;-80
2022/12/19 11:08:18;;;;;;;14.67;10.20;;;;;;;3.74;100.00;101066.66;5033853;28;20240;-81
2022/12/19 11:10:47;;;;;;;20.83;13.37;;;;;;;3.76;100.00;101063.03;5048160;28;20226;-80
2022/12/19 11:13:23;;;;;;;20.57;12.77;;;;;;;3.82;100.00;101068.16;5053947;28;20651;-81
2022/12/19 11:15:51;;;;;;;18.93;11.83;;;;;;;3.84;100.00;101054.94;5035362;28;20297;-81
2022/12/19 11:18:19;;;;;;;19.53;12.20;;;;;;;3.90;100.00;101059.16;5033099;28;20218;-81
2022/12/19 11:20:55;;;;;;;16.97;11.03;;;;;;;3.95;100.00;101054.59;5052883;28;20703;-80
2022/12/19 11:23:24;;;;;;;18.43;11.80;;;;;;;3.98;100.00;101049.25;5040771;28;20196;-81
2022/12/19 11:25:57;;;;;;;20.63;13.37;;;;;;;3.95;100.00;101052.84;5062562;28;20201;-81
2022/12/19 11:28:27;;;;;;;19.37;12.77;;;;;;;3.94;100.00;101045.84;5048065;28;20205;-82
2022/12/19 11:31:04;;;;;;;20.53;12.57;;;;;;;3.93;100.00;101038.00;5052807;28;20241;-80
2022/12/19 11:33:32;;;;;;;22.37;13.40;;;;;;;3.91;100.00;101035.41;5057210;28;20208;-80
2022/12/19 11:36:01;;;;;;;19.10;10.37;;;;;;;3.91;100.00;101037.19;5064916;28;20213;-79